sensor_id;sensor_type;location;lat;lon;timestamp;P1;durP1;ratioP1;P2;durP2;ratioP2
5787;SDS011;2920;48.158;12.254;2024-01-10T00:00:25;13.20;;;6.07;;
5787;SDS011;2920;48.158;12.254;2024-01-10T00:02:51;13.50;;;7.15;;
5787;SDS011;2920;48.158;12.254;2024-01-10T00:05:16;15.48;;;8.45;;
5787;SDS011;2920;48.158;12.254;2024-01-10T00:07:41;13.93;;;6.97;;
5787;SDS011;2920;48.158;12.254;2024-01-10T00:10:07;21.60;;;9.18;;
5787;SDS011;2920;48.158;12.254;2024-01-10T00:12:32;17.80;;;6.72;;
5787;SDS011;2920;48.158;12.254;2024-01-10T00:15:02;16.83;;;8.15;;
5787;SDS011;2920;48.158;12.254;2024-01-10T00:17:28;10.88;;;6.88;;
5787;SDS011;2920;48.158;12.254;2024-01-10T00:19:53;17.67;;;8.93;;
5787;SDS011;2920;48.158;12.254;2024-01-10T00:22:19;14.23;;;8.25;;
5787;SDS011;2920;48.158;12.254;2024-01-10T00:24:44;18.48;;;6.93;;
5787;SDS011;2920;48.158;12.254;2024-01-10T00:27:09;23.40;;;8.45;;
5787;SDS011;2920;48.158;12.254;2024-01-10T00:29:35;22.52;;;8.27;;
5787;SDS011;2920;48.158;12.254;2024-01-10T00:32:00;19.70;;;7.07;;
5787;SDS011;2920;48.158;12.254;2024-01-10T00:34:25;18.90;;;8.40;;
5787;SDS011;2920;48.158;12.254;2024-01-10T00:36:51;14.57;;;8.43;;
5787;SDS011;2920;48.158;12.254;2024-01-10T00:39:17;20.92;;;7.18;;
5787;SDS011;2920;48.158;12.254;2024-01-10T00:41:42;17.70;;;7.90;;
5787;SDS011;2920;48.158;12.254;2024-01-10T00:44:07;15.27;;;8.40;;
5787;SDS011;2920;48.158;12.254;2024-01-10T00:46:33;22.05;;;9.13;;
5787;SDS011;2920;48.158;12.254;2024-01-10T00:48:58;23.48;;;9.48;;
5787;SDS011;2920;48.158;12.254;2024-01-10T00:51:23;25.35;;;8.63;;
5787;SDS011;2920;48.158;12.254;2024-01-10T00:53:49;13.85;;;6.15;;
5787;SDS011;2920;48.158;12.254;2024-01-10T00:56:14;15.73;;;8.45;;
5787;SDS011;2920;48.158;12.254;2024-01-10T00:58:39;16.27;;;6.80;;
5787;SDS011;2920;48.158;12.254;2024-01-10T01:01:06;14.93;;;7.50;;
5787;SDS011;2920;48.158;12.254;2024-01-10T01:03:31;22.80;;;8.85;;
5787;SDS011;2920;48.158;12.254;2024-01-10T01:05:57;21.15;;;11.23;;
5787;SDS011;2920;48.158;12.254;2024-01-10T01:08:22;25.27;;;9.68;;
5787;SDS011;2920;48.158;12.254;2024-01-10T01:10:47;18.05;;;9.27;;
5787;SDS011;2920;48.158;12.254;2024-01-10T01:13:12;16.85;;;8.13;;
5787;SDS011;2920;48.158;12.254;2024-01-10T01:15:38;22.48;;;7.85;;
5787;SDS011;2920;48.158;12.254;2024-01-10T01:18:03;25.50;;;7.90;;
5787;SDS011;2920;48.158;12.254;2024-01-10T01:20:28;18.35;;;8.60;;
5787;SDS011;2920;48.158;12.254;2024-01-10T01:22:54;16.83;;;8.00;;
5787;SDS011;2920;48.158;12.254;2024-01-10T01:25:19;22.45;;;8.95;;
5787;SDS011;2920;48.158;12.254;2024-01-10T01:27:44;27.13;;;8.93;;
5787;SDS011;2920;48.158;12.254;2024-01-10T01:30:10;14.93;;;8.38;;
5787;SDS011;2920;48.158;12.254;2024-01-10T01:32:36;24.83;;;9.15;;
5787;SDS011;2920;48.158;12.254;2024-01-10T01:35:02;20.45;;;8.73;;
5787;SDS011;2920;48.158;12.254;2024-01-10T01:37:27;18.95;;;8.57;;
5787;SDS011;2920;48.158;12.254;2024-01-10T01:39:53;14.80;;;7.30;;
5787;SDS011;2920;48.158;12.254;2024-01-10T01:42:18;17.20;;;7.20;;
5787;SDS011;2920;48.158;12.254;2024-01-10T01:44:43;16.33;;;8.38;;
5787;SDS011;2920;48.158;12.254;2024-01-10T01:47:09;14.50;;;9.30;;
5787;SDS011;2920;48.158;12.254;2024-01-10T01:49:34;16.48;;;8.18;;
5787;SDS011;2920;48.158;12.254;2024-01-10T01:51:59;19.38;;;10.70;;
5787;SDS011;2920;48.158;12.254;2024-01-10T01:54:25;23.58;;;9.55;;
5787;SDS011;2920;48.158;12.254;2024-01-10T01:56:51;20.33;;;9.38;;
5787;SDS011;2920;48.158;12.254;2024-01-10T01:59:16;18.73;;;8.73;;
5787;SDS011;2920;48.158;12.254;2024-01-10T02:01:41;19.00;;;8.77;;
5787;SDS011;2920;48.158;12.254;2024-01-10T02:04:07;14.18;;;6.85;;
5787;SDS011;2920;48.158;12.254;2024-01-10T02:06:32;13.77;;;7.32;;
5787;SDS011;2920;48.158;12.254;2024-01-10T02:08:57;14.05;;;7.55;;
5787;SDS011;2920;48.158;12.254;2024-01-10T02:11:23;22.52;;;8.48;;
5787;SDS011;2920;48.158;12.254;2024-01-10T02:13:49;15.82;;;8.25;;
5787;SDS011;2920;48.158;12.254;2024-01-10T02:16:14;17.42;;;9.15;;
5787;SDS011;2920;48.158;12.254;2024-01-10T02:18:40;24.15;;;10.40;;
5787;SDS011;2920;48.158;12.254;2024-01-10T02:21:05;21.63;;;8.60;;
5787;SDS011;2920;48.158;12.254;2024-01-10T02:23:30;19.75;;;9.35;;
5787;SDS011;2920;48.158;12.254;2024-01-10T02:25:56;25.98;;;11.23;;
5787;SDS011;2920;48.158;12.254;2024-01-10T02:28:21;31.73;;;10.32;;
5787;SDS011;2920;48.158;12.254;2024-01-10T02:30:48;23.27;;;9.40;;
5787;SDS011;2920;48.158;12.254;2024-01-10T02:33:14;23.05;;;10.43;;
5787;SDS011;2920;48.158;12.254;2024-01-10T02:35:40;27.23;;;11.23;;
5787;SDS011;2920;48.158;12.254;2024-01-10T02:38:05;23.98;;;10.63;;
5787;SDS011;2920;48.158;12.254;2024-01-10T02:40:30;22.17;;;8.98;;
5787;SDS011;2920;48.158;12.254;2024-01-10T02:42:56;23.27;;;9.95;;
5787;SDS011;2920;48.158;12.254;2024-01-10T02:45:21;24.25;;;11.82;;
5787;SDS011;2920;48.158;12.254;2024-01-10T02:47:47;20.88;;;10.20;;
5787;SDS011;2920;48.158;12.254;2024-01-10T02:50:12;22.35;;;10.18;;
5787;SDS011;2920;48.158;12.254;2024-01-10T02:52:37;23.60;;;10.52;;
5787;SDS011;2920;48.158;12.254;2024-01-10T02:55:03;16.98;;;9.60;;
5787;SDS011;2920;48.158;12.254;2024-01-10T02:57:28;18.05;;;10.10;;
5787;SDS011;2920;48.158;12.254;2024-01-10T02:59:54;18.45;;;8.48;;
5787;SDS011;2920;48.158;12.254;2024-01-10T03:02:19;17.00;;;9.55;;
5787;SDS011;2920;48.158;12.254;2024-01-10T03:04:44;23.90;;;11.75;;
5787;SDS011;2920;48.158;12.254;2024-01-10T03:07:10;20.42;;;9.23;;
5787;SDS011;2920;48.158;12.254;2024-01-10T03:09:35;23.45;;;11.63;;
5787;SDS011;2920;48.158;12.254;2024-01-10T03:12:01;24.67;;;10.43;;
5787;SDS011;2920;48.158;12.254;2024-01-10T03:14:26;23.55;;;9.68;;
5787;SDS011;2920;48.158;12.254;2024-01-10T03:16:51;25.50;;;12.25;;
5787;SDS011;2920;48.158;12.254;2024-01-10T03:19:18;26.98;;;11.23;;
5787;SDS011;2920;48.158;12.254;2024-01-10T03:21:43;24.92;;;10.70;;
5787;SDS011;2920;48.158;12.254;2024-01-10T03:24:08;25.20;;;11.00;;
5787;SDS011;2920;48.158;12.254;2024-01-10T03:26:34;22.42;;;9.45;;
5787;SDS011;2920;48.158;12.254;2024-01-10T03:28:59;24.60;;;11.38;;
5787;SDS011;2920;48.158;12.254;2024-01-10T03:31:26;22.00;;;9.80;;
5787;SDS011;2920;48.158;12.254;2024-01-10T03:33:52;23.02;;;11.18;;
5787;SDS011;2920;48.158;12.254;2024-01-10T03:36:18;25.02;;;10.63;;
5787;SDS011;2920;48.158;12.254;2024-01-10T03:38:44;26.70;;;10.98;;
5787;SDS011;2920;48.158;12.254;2024-01-10T03:41:16;27.63;;;10.30;;
5787;SDS011;2920;48.158;12.254;2024-01-10T03:43:42;33.92;;;12.38;;
5787;SDS011;2920;48.158;12.254;2024-01-10T03:46:08;26.88;;;11.60;;
5787;SDS011;2920;48.158;12.254;2024-01-10T03:48:34;29.98;;;11.68;;
5787;SDS011;2920;48.158;12.254;2024-01-10T03:50:59;32.63;;;12.95;;
5787;SDS011;2920;48.158;12.254;2024-01-10T03:53:25;33.33;;;12.10;;
5787;SDS011;2920;48.158;12.254;2024-01-10T03:55:50;36.40;;;10.25;;
5787;SDS011;2920;48.158;12.254;2024-01-10T03:58:15;31.45;;;9.30;;
5787;SDS011;2920;48.158;12.254;2024-01-10T04:00:40;25.70;;;11.05;;
5787;SDS011;2920;48.158;12.254;2024-01-10T04:03:06;27.00;;;11.35;;
5787;SDS011;2920;48.158;12.254;2024-01-10T04:05:31;28.15;;;11.77;;
5787;SDS011;2920;48.158;12.254;2024-01-10T04:07:56;29.10;;;10.15;;
5787;SDS011;2920;48.158;12.254;2024-01-10T04:10:22;36.60;;;11.00;;
5787;SDS011;2920;48.158;12.254;2024-01-10T04:12:48;36.72;;;13.13;;
5787;SDS011;2920;48.158;12.254;2024-01-10T04:15:13;24.08;;;9.35;;
5787;SDS011;2920;48.158;12.254;2024-01-10T04:17:39;22.65;;;11.77;;
5787;SDS011;2920;48.158;12.254;2024-01-10T04:20:04;28.42;;;10.88;;
5787;SDS011;2920;48.158;12.254;2024-01-10T04:22:30;28.10;;;10.45;;
5787;SDS011;2920;48.158;12.254;2024-01-10T04:24:59;34.55;;;12.50;;
5787;SDS011;2920;48.158;12.254;2024-01-10T04:27:25;30.33;;;11.55;;
5787;SDS011;2920;48.158;12.254;2024-01-10T04:29:51;28.67;;;11.15;;
5787;SDS011;2920;48.158;12.254;2024-01-10T04:32:16;30.60;;;12.40;;
5787;SDS011;2920;48.158;12.254;2024-01-10T04:34:42;25.73;;;11.35;;
5787;SDS011;2920;48.158;12.254;2024-01-10T04:37:07;26.48;;;10.50;;
5787;SDS011;2920;48.158;12.254;2024-01-10T04:39:33;40.75;;;12.82;;
5787;SDS011;2920;48.158;12.254;2024-01-10T04:41:59;26.23;;;10.55;;
5787;SDS011;2920;48.158;12.254;2024-01-10T04:44:24;32.08;;;13.27;;
5787;SDS011;2920;48.158;12.254;2024-01-10T04:46:49;27.48;;;11.07;;
5787;SDS011;2920;48.158;12.254;2024-01-10T04:49:15;45.03;;;15.82;;
5787;SDS011;2920;48.158;12.254;2024-01-10T04:51:40;34.60;;;12.95;;
5787;SDS011;2920;48.158;12.254;2024-01-10T04:54:05;33.28;;;14.85;;
5787;SDS011;2920;48.158;12.254;2024-01-10T04:56:31;30.30;;;11.88;;
5787;SDS011;2920;48.158;12.254;2024-01-10T04:58:56;28.40;;;12.60;;
5787;SDS011;2920;48.158;12.254;2024-01-10T05:01:21;33.92;;;13.93;;
5787;SDS011;2920;48.158;12.254;2024-01-10T05:03:47;31.67;;;12.35;;
5787;SDS011;2920;48.158;12.254;2024-01-10T05:06:12;37.00;;;12.70;;
5787;SDS011;2920;48.158;12.254;2024-01-10T05:08:37;30.02;;;12.30;;
5787;SDS011;2920;48.158;12.254;2024-01-10T05:11:03;26.83;;;10.98;;
5787;SDS011;2920;48.158;12.254;2024-01-10T05:13:28;34.13;;;12.68;;
5787;SDS011;2920;48.158;12.254;2024-01-10T05:15:54;35.50;;;13.30;;
5787;SDS011;2920;48.158;12.254;2024-01-10T05:18:20;36.55;;;14.80;;
5787;SDS011;2920;48.158;12.254;2024-01-10T05:20:45;34.40;;;12.90;;
5787;SDS011;2920;48.158;12.254;2024-01-10T05:23:11;39.90;;;12.40;;
5787;SDS011;2920;48.158;12.254;2024-01-10T05:25:36;29.55;;;13.85;;
5787;SDS011;2920;48.158;12.254;2024-01-10T05:28:02;33.28;;;12.38;;
5787;SDS011;2920;48.158;12.254;2024-01-10T05:30:27;34.28;;;12.27;;
5787;SDS011;2920;48.158;12.254;2024-01-10T05:32:52;37.10;;;13.00;;
5787;SDS011;2920;48.158;12.254;2024-01-10T05:35:18;31.50;;;13.05;;
5787;SDS011;2920;48.158;12.254;2024-01-10T05:37:43;36.13;;;13.10;;
5787;SDS011;2920;48.158;12.254;2024-01-10T05:40:08;35.50;;;13.45;;
5787;SDS011;2920;48.158;12.254;2024-01-10T05:42:34;29.50;;;11.93;;
5787;SDS011;2920;48.158;12.254;2024-01-10T05:45:00;41.90;;;13.57;;
5787;SDS011;2920;48.158;12.254;2024-01-10T05:47:27;37.72;;;13.65;;
5787;SDS011;2920;48.158;12.254;2024-01-10T05:49:52;41.38;;;12.27;;
5787;SDS011;2920;48.158;12.254;2024-01-10T05:52:18;35.00;;;13.45;;
5787;SDS011;2920;48.158;12.254;2024-01-10T05:54:44;43.08;;;14.15;;
5787;SDS011;2920;48.158;12.254;2024-01-10T05:57:10;39.83;;;14.55;;
5787;SDS011;2920;48.158;12.254;2024-01-10T05:59:35;36.25;;;12.77;;
5787;SDS011;2920;48.158;12.254;2024-01-10T06:02:01;34.10;;;13.65;;
5787;SDS011;2920;48.158;12.254;2024-01-10T06:04:27;43.90;;;14.38;;
5787;SDS011;2920;48.158;12.254;2024-01-10T06:06:55;39.63;;;14.57;;
5787;SDS011;2920;48.158;12.254;2024-01-10T06:09:22;36.85;;;13.82;;
5787;SDS011;2920;48.158;12.254;2024-01-10T06:11:48;43.42;;;12.90;;
5787;SDS011;2920;48.158;12.254;2024-01-10T06:14:13;44.15;;;14.77;;
5787;SDS011;2920;48.158;12.254;2024-01-10T06:16:38;40.00;;;14.65;;
5787;SDS011;2920;48.158;12.254;2024-01-10T06:19:04;35.65;;;14.32;;
5787;SDS011;2920;48.158;12.254;2024-01-10T06:21:30;39.15;;;14.38;;
5787;SDS011;2920;48.158;12.254;2024-01-10T06:23:55;35.45;;;14.05;;
5787;SDS011;2920;48.158;12.254;2024-01-10T06:26:21;41.05;;;13.32;;
5787;SDS011;2920;48.158;12.254;2024-01-10T06:28:47;36.20;;;12.15;;
5787;SDS011;2920;48.158;12.254;2024-01-10T06:31:12;29.08;;;14.93;;
5787;SDS011;2920;48.158;12.254;2024-01-10T06:33:38;33.05;;;11.90;;
5787;SDS011;2920;48.158;12.254;2024-01-10T06:36:03;41.80;;;14.30;;
5787;SDS011;2920;48.158;12.254;2024-01-10T06:38:28;28.55;;;12.07;;
5787;SDS011;2920;48.158;12.254;2024-01-10T06:40:57;40.70;;;11.73;;
5787;SDS011;2920;48.158;12.254;2024-01-10T06:43:22;36.78;;;12.88;;
5787;SDS011;2920;48.158;12.254;2024-01-10T06:45:48;29.20;;;12.07;;
5787;SDS011;2920;48.158;12.254;2024-01-10T06:48:14;27.98;;;11.13;;
5787;SDS011;2920;48.158;12.254;2024-01-10T06:50:39;36.25;;;15.27;;
5787;SDS011;2920;48.158;12.254;2024-01-10T06:53:05;38.60;;;13.10;;
5787;SDS011;2920;48.158;12.254;2024-01-10T06:55:30;36.65;;;11.45;;
5787;SDS011;2920;48.158;12.254;2024-01-10T06:57:55;39.22;;;14.68;;
5787;SDS011;2920;48.158;12.254;2024-01-10T07:00:21;37.85;;;13.65;;
5787;SDS011;2920;48.158;12.254;2024-01-10T07:02:47;32.90;;;13.57;;
5787;SDS011;2920;48.158;12.254;2024-01-10T07:05:14;32.90;;;15.35;;
5787;SDS011;2920;48.158;12.254;2024-01-10T07:07:39;36.75;;;12.70;;
5787;SDS011;2920;48.158;12.254;2024-01-10T07:10:04;37.95;;;13.88;;
5787;SDS011;2920;48.158;12.254;2024-01-10T07:12:30;41.65;;;13.80;;
5787;SDS011;2920;48.158;12.254;2024-01-10T07:14:56;34.10;;;13.40;;
5787;SDS011;2920;48.158;12.254;2024-01-10T07:17:22;31.60;;;12.52;;
5787;SDS011;2920;48.158;12.254;2024-01-10T07:19:47;41.50;;;14.65;;
5787;SDS011;2920;48.158;12.254;2024-01-10T07:22:13;33.42;;;13.23;;
5787;SDS011;2920;48.158;12.254;2024-01-10T07:24:38;37.92;;;15.48;;
5787;SDS011;2920;48.158;12.254;2024-01-10T07:27:03;32.92;;;13.57;;
5787;SDS011;2920;48.158;12.254;2024-01-10T07:29:30;37.53;;;13.88;;
5787;SDS011;2920;48.158;12.254;2024-01-10T07:31:56;32.30;;;12.35;;
5787;SDS011;2920;48.158;12.254;2024-01-10T07:34:21;39.17;;;14.98;;
5787;SDS011;2920;48.158;12.254;2024-01-10T07:36:47;38.10;;;12.40;;
5787;SDS011;2920;48.158;12.254;2024-01-10T07:39:12;32.10;;;12.82;;
5787;SDS011;2920;48.158;12.254;2024-01-10T07:41:40;41.10;;;14.77;;
5787;SDS011;2920;48.158;12.254;2024-01-10T07:44:06;36.15;;;13.60;;
5787;SDS011;2920;48.158;12.254;2024-01-10T07:46:32;31.95;;;11.90;;
5787;SDS011;2920;48.158;12.254;2024-01-10T07:48:59;46.90;;;14.63;;
5787;SDS011;2920;48.158;12.254;2024-01-10T07:51:25;44.42;;;15.55;;
5787;SDS011;2920;48.158;12.254;2024-01-10T07:53:51;40.28;;;13.35;;
5787;SDS011;2920;48.158;12.254;2024-01-10T07:56:16;39.80;;;13.15;;
5787;SDS011;2920;48.158;12.254;2024-01-10T07:58:41;34.90;;;13.75;;
5787;SDS011;2920;48.158;12.254;2024-01-10T08:01:06;34.42;;;12.43;;
5787;SDS011;2920;48.158;12.254;2024-01-10T08:03:32;38.15;;;13.88;;
5787;SDS011;2920;48.158;12.254;2024-01-10T08:05:58;41.40;;;14.52;;
5787;SDS011;2920;48.158;12.254;2024-01-10T08:08:24;36.40;;;13.40;;
5787;SDS011;2920;48.158;12.254;2024-01-10T08:10:49;38.90;;;15.15;;
5787;SDS011;2920;48.158;12.254;2024-01-10T08:13:14;32.30;;;13.20;;
5787;SDS011;2920;48.158;12.254;2024-01-10T08:15:40;36.35;;;13.82;;
5787;SDS011;2920;48.158;12.254;2024-01-10T08:18:06;31.95;;;12.95;;
5787;SDS011;2920;48.158;12.254;2024-01-10T08:20:32;32.80;;;11.95;;
5787;SDS011;2920;48.158;12.254;2024-01-10T08:22:57;37.20;;;13.82;;
5787;SDS011;2920;48.158;12.254;2024-01-10T08:25:23;32.45;;;13.38;;
5787;SDS011;2920;48.158;12.254;2024-01-10T08:27:48;34.83;;;12.95;;
5787;SDS011;2920;48.158;12.254;2024-01-10T08:30:14;34.42;;;13.27;;
5787;SDS011;2920;48.158;12.254;2024-01-10T08:32:39;37.25;;;12.95;;
5787;SDS011;2920;48.158;12.254;2024-01-10T08:35:05;39.50;;;15.05;;
5787;SDS011;2920;48.158;12.254;2024-01-10T08:37:30;30.00;;;12.27;;
5787;SDS011;2920;48.158;12.254;2024-01-10T08:39:56;35.42;;;12.85;;
5787;SDS011;2920;48.158;12.254;2024-01-10T08:42:21;31.80;;;12.48;;
5787;SDS011;2920;48.158;12.254;2024-01-10T08:44:47;42.20;;;13.57;;
5787;SDS011;2920;48.158;12.254;2024-01-10T08:47:12;29.73;;;11.90;;
5787;SDS011;2920;48.158;12.254;2024-01-10T08:49:38;40.72;;;12.40;;
5787;SDS011;2920;48.158;12.254;2024-01-10T08:52:04;29.67;;;11.73;;
5787;SDS011;2920;48.158;12.254;2024-01-10T08:54:29;43.35;;;12.40;;
5787;SDS011;2920;48.158;12.254;2024-01-10T08:56:55;37.22;;;11.57;;
5787;SDS011;2920;48.158;12.254;2024-01-10T08:59:20;36.95;;;12.25;;
5787;SDS011;2920;48.158;12.254;2024-01-10T09:01:45;32.30;;;11.77;;
5787;SDS011;2920;48.158;12.254;2024-01-10T09:04:11;38.88;;;12.35;;
5787;SDS011;2920;48.158;12.254;2024-01-10T09:06:37;29.50;;;13.00;;
5787;SDS011;2920;48.158;12.254;2024-01-10T09:09:02;39.65;;;13.43;;
5787;SDS011;2920;48.158;12.254;2024-01-10T09:11:28;35.90;;;12.73;;
5787;SDS011;2920;48.158;12.254;2024-01-10T09:13:53;30.42;;;11.93;;
5787;SDS011;2920;48.158;12.254;2024-01-10T09:16:18;34.13;;;11.88;;
5787;SDS011;2920;48.158;12.254;2024-01-10T09:18:44;32.90;;;12.18;;
5787;SDS011;2920;48.158;12.254;2024-01-10T09:21:09;40.78;;;12.40;;
5787;SDS011;2920;48.158;12.254;2024-01-10T09:23:35;37.42;;;11.77;;
5787;SDS011;2920;48.158;12.254;2024-01-10T09:26:00;31.83;;;10.88;;
5787;SDS011;2920;48.158;12.254;2024-01-10T09:28:25;36.90;;;12.27;;
5787;SDS011;2920;48.158;12.254;2024-01-10T09:30:51;32.53;;;12.07;;
5787;SDS011;2920;48.158;12.254;2024-01-10T09:33:16;39.40;;;12.13;;
5787;SDS011;2920;48.158;12.254;2024-01-10T09:35:42;35.28;;;11.77;;
5787;SDS011;2920;48.158;12.254;2024-01-10T09:38:07;35.97;;;12.85;;
5787;SDS011;2920;48.158;12.254;2024-01-10T09:40:32;33.70;;;12.15;;
5787;SDS011;2920;48.158;12.254;2024-01-10T09:42:58;34.05;;;12.38;;
5787;SDS011;2920;48.158;12.254;2024-01-10T09:45:23;29.98;;;13.13;;
5787;SDS011;2920;48.158;12.254;2024-01-10T09:47:52;31.83;;;11.95;;
5787;SDS011;2920;48.158;12.254;2024-01-10T09:50:20;39.78;;;13.00;;
5787;SDS011;2920;48.158;12.254;2024-01-10T09:53:07;37.22;;;12.90;;
5787;SDS011;2920;48.158;12.254;2024-01-10T09:55:35;37.08;;;11.80;;
5787;SDS011;2920;48.158;12.254;2024-01-10T09:58:03;37.17;;;13.00;;
5787;SDS011;2920;48.158;12.254;2024-01-10T10:00:29;28.00;;;10.95;;
5787;SDS011;2920;48.158;12.254;2024-01-10T10:02:55;30.65;;;11.90;;
5787;SDS011;2920;48.158;12.254;2024-01-10T10:05:21;30.38;;;10.75;;
5787;SDS011;2920;48.158;12.254;2024-01-10T10:07:47;41.03;;;13.45;;
5787;SDS011;2920;48.158;12.254;2024-01-10T10:10:15;36.63;;;14.27;;
5787;SDS011;2920;48.158;12.254;2024-01-10T10:12:41;32.35;;;11.80;;
5787;SDS011;2920;48.158;12.254;2024-01-10T10:15:11;42.20;;;13.13;;
5787;SDS011;2920;48.158;12.254;2024-01-10T10:17:38;36.03;;;13.55;;
5787;SDS011;2920;48.158;12.254;2024-01-10T10:20:11;31.27;;;12.52;;
5787;SDS011;2920;48.158;12.254;2024-01-10T10:22:38;38.42;;;13.05;;
5787;SDS011;2920;48.158;12.254;2024-01-10T10:25:04;33.55;;;12.85;;
5787;SDS011;2920;48.158;12.254;2024-01-10T10:27:29;38.53;;;13.50;;
5787;SDS011;2920;48.158;12.254;2024-01-10T10:29:55;32.72;;;12.35;;
5787;SDS011;2920;48.158;12.254;2024-01-10T10:32:20;31.38;;;12.05;;
5787;SDS011;2920;48.158;12.254;2024-01-10T10:34:46;34.40;;;15.15;;
5787;SDS011;2920;48.158;12.254;2024-01-10T10:37:11;38.85;;;14.68;;
5787;SDS011;2920;48.158;12.254;2024-01-10T10:39:36;40.78;;;14.88;;
5787;SDS011;2920;48.158;12.254;2024-01-10T10:42:03;38.47;;;13.68;;
5787;SDS011;2920;48.158;12.254;2024-01-10T10:44:29;46.00;;;14.63;;
5787;SDS011;2920;48.158;12.254;2024-01-10T10:46:59;33.38;;;13.20;;
5787;SDS011;2920;48.158;12.254;2024-01-10T10:49:31;33.45;;;12.55;;
5787;SDS011;2920;48.158;12.254;2024-01-10T10:51:57;36.70;;;12.73;;
5787;SDS011;2920;48.158;12.254;2024-01-10T10:54:25;30.00;;;12.00;;
5787;SDS011;2920;48.158;12.254;2024-01-10T10:56:51;34.42;;;11.57;;
5787;SDS011;2920;48.158;12.254;2024-01-10T10:59:16;30.25;;;11.25;;
5787;SDS011;2920;48.158;12.254;2024-01-10T11:01:44;27.48;;;11.77;;
5787;SDS011;2920;48.158;12.254;2024-01-10T11:04:11;45.92;;;14.25;;
5787;SDS011;2920;48.158;12.254;2024-01-10T11:06:39;37.88;;;12.45;;
5787;SDS011;2920;48.158;12.254;2024-01-10T11:09:06;26.70;;;12.13;;
5787;SDS011;2920;48.158;12.254;2024-01-10T11:25:30;34.65;;;12.30;;
5787;SDS011;2920;48.158;12.254;2024-01-10T11:27:57;41.33;;;14.07;;
5787;SDS011;2920;48.158;12.254;2024-01-10T11:30:35;32.97;;;11.13;;
5787;SDS011;2920;48.158;12.254;2024-01-10T11:33:24;33.85;;;12.05;;
5787;SDS011;2920;48.158;12.254;2024-01-10T11:36:15;27.77;;;10.85;;
5787;SDS011;2920;48.158;12.254;2024-01-10T11:38:42;36.80;;;12.10;;
5787;SDS011;2920;48.158;12.254;2024-01-10T11:41:09;32.78;;;11.65;;
5787;SDS011;2920;48.158;12.254;2024-01-10T11:43:35;32.45;;;12.00;;
5787;SDS011;2920;48.158;12.254;2024-01-10T11:46:01;30.70;;;10.10;;
5787;SDS011;2920;48.158;12.254;2024-01-10T11:48:30;33.13;;;10.97;;
5787;SDS011;2920;48.158;12.254;2024-01-10T11:50:56;35.30;;;12.38;;
5787;SDS011;2920;48.158;12.254;2024-01-10T11:53:38;37.60;;;13.57;;
5787;SDS011;2920;48.158;12.254;2024-01-10T11:56:15;28.55;;;11.65;;
5787;SDS011;2920;48.158;12.254;2024-01-10T12:01:19;31.02;;;12.02;;
5787;SDS011;2920;48.158;12.254;2024-01-10T12:03:46;34.83;;;12.07;;
5787;SDS011;2920;48.158;12.254;2024-01-10T12:06:13;37.67;;;12.27;;
5787;SDS011;2920;48.158;12.254;2024-01-10T12:08:39;27.75;;;10.70;;
5787;SDS011;2920;48.158;12.254;2024-01-10T12:11:05;30.27;;;12.07;;
5787;SDS011;2920;48.158;12.254;2024-01-10T12:13:30;31.40;;;10.95;;
5787;SDS011;2920;48.158;12.254;2024-01-10T12:15:57;32.75;;;10.45;;
5787;SDS011;2920;48.158;12.254;2024-01-10T12:18:22;31.85;;;10.65;;
5787;SDS011;2920;48.158;12.254;2024-01-10T12:20:48;29.40;;;11.20;;
5787;SDS011;2920;48.158;12.254;2024-01-10T12:23:13;28.85;;;12.10;;
5787;SDS011;2920;48.158;12.254;2024-01-10T12:25:38;31.20;;;11.98;;
5787;SDS011;2920;48.158;12.254;2024-01-10T12:28:04;26.98;;;9.70;;
5787;SDS011;2920;48.158;12.254;2024-01-10T12:30:30;24.85;;;9.88;;
5787;SDS011;2920;48.158;12.254;2024-01-10T12:32:55;33.05;;;11.18;;
5787;SDS011;2920;48.158;12.254;2024-01-10T12:35:23;30.60;;;11.52;;
5787;SDS011;2920;48.158;12.254;2024-01-10T12:37:54;35.10;;;12.98;;
5787;SDS011;2920;48.158;12.254;2024-01-10T12:40:20;28.45;;;11.10;;
5787;SDS011;2920;48.158;12.254;2024-01-10T12:42:46;33.05;;;11.10;;
5787;SDS011;2920;48.158;12.254;2024-01-10T12:45:21;25.75;;;11.05;;
5787;SDS011;2920;48.158;12.254;2024-01-10T12:47:47;28.05;;;11.50;;
5787;SDS011;2920;48.158;12.254;2024-01-10T12:50:12;28.88;;;11.70;;
5787;SDS011;2920;48.158;12.254;2024-01-10T12:52:38;32.10;;;11.73;;
5787;SDS011;2920;48.158;12.254;2024-01-10T12:55:05;33.78;;;11.18;;
5787;SDS011;2920;48.158;12.254;2024-01-10T12:57:30;35.00;;;11.52;;
5787;SDS011;2920;48.158;12.254;2024-01-10T12:59:56;36.35;;;12.68;;
5787;SDS011;2920;48.158;12.254;2024-01-10T13:02:21;26.75;;;10.20;;
5787;SDS011;2920;48.158;12.254;2024-01-10T13:04:47;35.42;;;13.30;;
5787;SDS011;2920;48.158;12.254;2024-01-10T13:07:12;33.63;;;11.88;;
5787;SDS011;2920;48.158;12.254;2024-01-10T13:09:37;42.47;;;12.05;;
5787;SDS011;2920;48.158;12.254;2024-01-10T13:12:03;33.97;;;10.82;;
5787;SDS011;2920;48.158;12.254;2024-01-10T13:14:28;28.88;;;10.32;;
5787;SDS011;2920;48.158;12.254;2024-01-10T13:16:56;30.60;;;11.07;;
5787;SDS011;2920;48.158;12.254;2024-01-10T13:19:21;26.20;;;11.05;;
5787;SDS011;2920;48.158;12.254;2024-01-10T13:21:46;34.30;;;10.93;;
5787;SDS011;2920;48.158;12.254;2024-01-10T13:24:12;36.92;;;12.27;;
5787;SDS011;2920;48.158;12.254;2024-01-10T13:26:37;30.15;;;10.43;;
5787;SDS011;2920;48.158;12.254;2024-01-10T13:29:03;28.15;;;11.05;;
5787;SDS011;2920;48.158;12.254;2024-01-10T13:31:28;30.08;;;10.68;;
5787;SDS011;2920;48.158;12.254;2024-01-10T13:33:54;26.90;;;9.15;;
5787;SDS011;2920;48.158;12.254;2024-01-10T13:36:19;23.67;;;9.85;;
5787;SDS011;2920;48.158;12.254;2024-01-10T13:38:44;22.63;;;10.13;;
5787;SDS011;2920;48.158;12.254;2024-01-10T13:41:10;24.05;;;9.90;;
5787;SDS011;2920;48.158;12.254;2024-01-10T13:43:35;30.73;;;11.32;;
5787;SDS011;2920;48.158;12.254;2024-01-10T13:46:01;33.22;;;11.80;;
5787;SDS011;2920;48.158;12.254;2024-01-10T13:48:26;32.25;;;10.80;;
5787;SDS011;2920;48.158;12.254;2024-01-10T13:50:52;35.95;;;11.63;;
5787;SDS011;2920;48.158;12.254;2024-01-10T13:53:17;31.80;;;10.60;;
5787;SDS011;2920;48.158;12.254;2024-01-10T13:55:42;36.10;;;11.88;;
5787;SDS011;2920;48.158;12.254;2024-01-10T13:58:08;30.85;;;11.82;;
5787;SDS011;2920;48.158;12.254;2024-01-10T14:00:33;36.78;;;10.43;;
5787;SDS011;2920;48.158;12.254;2024-01-10T14:02:58;34.22;;;12.80;;
5787;SDS011;2920;48.158;12.254;2024-01-10T14:05:25;36.22;;;13.57;;
5787;SDS011;2920;48.158;12.254;2024-01-10T14:07:51;31.65;;;12.68;;
5787;SDS011;2920;48.158;12.254;2024-01-10T14:10:16;31.10;;;12.48;;
5787;SDS011;2920;48.158;12.254;2024-01-10T14:12:42;30.02;;;10.65;;
5787;SDS011;2920;48.158;12.254;2024-01-10T14:15:07;37.45;;;13.95;;
5787;SDS011;2920;48.158;12.254;2024-01-10T14:17:34;32.55;;;12.43;;
5787;SDS011;2920;48.158;12.254;2024-01-10T14:19:59;33.30;;;12.43;;
5787;SDS011;2920;48.158;12.254;2024-01-10T14:22:24;35.05;;;10.75;;
5787;SDS011;2920;48.158;12.254;2024-01-10T14:24:50;35.83;;;12.77;;
5787;SDS011;2920;48.158;12.254;2024-01-10T14:27:16;35.03;;;12.05;;
5787;SDS011;2920;48.158;12.254;2024-01-10T14:29:41;36.42;;;10.43;;
5787;SDS011;2920;48.158;12.254;2024-01-10T14:32:07;32.80;;;12.80;;
5787;SDS011;2920;48.158;12.254;2024-01-10T14:34:32;38.22;;;12.05;;
5787;SDS011;2920;48.158;12.254;2024-01-10T14:36:57;33.78;;;12.35;;
5787;SDS011;2920;48.158;12.254;2024-01-10T14:39:23;33.75;;;12.27;;
5787;SDS011;2920;48.158;12.254;2024-01-10T14:41:51;39.58;;;13.48;;
5787;SDS011;2920;48.158;12.254;2024-01-10T14:44:16;31.08;;;11.18;;
5787;SDS011;2920;48.158;12.254;2024-01-10T14:46:41;32.90;;;12.73;;